Time;durP1;ratioP1;P1;durP2;ratioP2;P2;SDS_P1;SDS_P2;PMS_P1;PMS_P2;Temp;Humidity;BMP_temperature;BMP_pressure;BME280_temperature;BME280_humidity;BME280_pressure;Samples;Min_cycle;Max_cycle;Signal;HPM_P1;HPM_P2
2023/04/02 00:02:20;;;;;;;0.40;0.35;;;7.30;99.90;;;6.67;100.00;96438.69;4988559;28;20026;-37
2023/04/02 00:05:15;;;;;;;0.40;0.40;;;7.30;99.90;;;6.62;100.00;96438.84;5011137;28;20029;-37
2023/04/02 00:07:43;;;;;;;0.85;0.30;;;7.30;99.90;;;6.62;100.00;96449.34;5010133;28;20088;-37
2023/04/02 00:10:45;;;;;;;1.33;0.50;;;7.20;99.90;;;6.55;100.00;96439.13;4989800;28;20021;-37
2023/04/02 00:13:11;;;;;;;0.30;0.30;;;7.20;99.90;;;6.52;100.00;96447.97;5007765;28;20059;-37
2023/04/02 00:15:39;;;;;;;1.27;0.70;;;7.20;99.90;;;6.49;100.00;96451.53;5006865;28;20116;-37
2023/04/02 00:18:05;;;;;;;0.90;0.30;;;7.20;99.90;;;6.51;100.00;96448.84;5008931;28;20037;-37
2023/04/02 00:20:37;;;;;;;0.68;0.40;;;7.20;99.90;;;6.52;100.00;96452.34;5009363;28;20056;-37
2023/04/02 00:23:05;;;;;;;0.90;0.27;;;7.20;99.90;;;6.39;100.00;96426.59;5004186;28;20121;-37
2023/04/02 00:25:41;;;;;;;2.05;0.30;;;7.20;99.90;;;6.38;100.00;96426.66;5004395;28;20451;-37
2023/04/02 00:28:18;;;;;;;0.65;0.32;;;7.20;99.90;;;6.57;100.00;96447.78;5005557;28;20144;-37
2023/04/02 00:30:57;;;;;;;0.75;0.40;;;7.20;99.90;;;6.58;100.00;96454.72;5004119;28;20116;-37
2023/04/02 00:33:27;;;;;;;0.95;0.45;;;7.20;99.90;;;6.58;100.00;96463.44;4994874;28;20032;-37
2023/04/02 00:35:54;;;;;;;0.40;0.30;;;7.20;99.90;;;6.40;100.00;96440.53;4989769;28;20485;-37
2023/04/02 00:38:31;;;;;;;2.00;0.30;;;7.20;99.90;;;6.58;100.00;96466.06;4987976;28;20072;-37
2023/04/02 00:41:02;;;;;;;0.93;0.47;;;7.20;99.90;;;6.63;100.00;96479.00;4990162;28;20112;-37
2023/04/02 00:43:31;;;;;;;0.40;0.40;;;7.30;99.90;;;6.63;100.00;96472.00;4985512;28;20034;-37
2023/04/02 00:46:09;;;;;;;0.40;0.40;;;7.30;99.90;;;6.67;100.00;96464.88;4998787;28;20049;-37
2023/04/02 00:48:58;;;;;;;0.68;0.30;;;7.30;99.90;;;6.69;100.00;96470.91;4982761;28;20045;-37
2023/04/02 00:51:49;;;;;;;1.10;0.32;;;7.30;99.90;;;6.74;100.00;96476.00;5000116;28;20500;-37
2023/04/02 00:54:20;;;;;;;0.63;0.45;;;7.40;99.90;;;6.75;100.00;96467.22;5000751;28;20547;-37
2023/04/02 00:56:51;;;;;;;0.95;0.85;;;7.40;99.90;;;6.78;100.00;96473.19;4994984;28;20128;-37
2023/04/02 00:59:29;;;;;;;0.30;0.28;;;7.40;99.90;;;6.80;100.00;96470.50;5003079;28;20038;-37
2023/04/02 01:02:21;;;;;;;0.30;0.30;;;7.40;99.90;;;6.85;100.00;96473.81;4994832;28;20071;-37
2023/04/02 01:05:15;;;;;;;0.88;0.30;;;7.50;99.90;;;6.87;100.00;96474.63;4997486;28;20037;-37
2023/04/02 01:08:23;;;;;;;0.75;0.40;;;7.50;99.90;;;6.88;100.00;96466.72;4986976;28;20128;-37
2023/04/02 01:11:01;;;;;;;0.57;0.30;;;7.50;99.90;;;6.88;100.00;96478.97;4983529;28;20298;-37
2023/04/02 01:13:44;;;;;;;0.30;0.30;;;7.50;99.90;;;6.90;100.00;96474.50;4980919;28;20477;-37
2023/04/02 01:16:30;;;;;;;0.68;0.38;;;7.60;99.90;;;6.94;100.00;96481.34;5004624;28;21539;-37
2023/04/02 01:19:53;;;;;;;1.20;0.50;;;7.60;99.90;;;6.94;100.00;96486.59;4995039;28;20546;-37
2023/04/02 01:26:22;;;;;;;1.15;0.40;;;7.60;99.90;;;6.96;100.00;96491.78;5002095;28;20076;-36
2023/04/02 01:29:05;;;;;;;0.77;0.70;;;7.60;99.90;;;6.98;100.00;96487.31;4989864;28;20389;-37
2023/04/02 01:31:33;;;;;;;0.30;0.10;;;7.60;99.90;;;6.99;100.00;96489.06;4989861;28;20033;-37
2023/04/02 01:34:01;;;;;;;2.05;0.28;;;7.60;99.90;;;7.01;100.00;96487.22;4991872;28;20493;-37
2023/04/02 01:37:12;;;;;;;0.50;0.38;;;7.60;99.90;;;7.02;100.00;96487.16;4991819;28;20346;-37
2023/04/02 01:40:19;;;;;;;0.20;0.20;;;7.70;99.90;;;7.04;100.00;96485.34;4996877;28;20052;-37
2023/04/02 01:43:24;;;;;;;1.67;0.50;;;7.70;99.90;;;7.08;100.00;96492.16;5014574;28;20091;-37
2023/04/02 01:45:50;;;;;;;2.03;0.30;;;7.70;99.90;;;7.12;100.00;96499.94;5004507;28;20033;-37
2023/04/02 01:48:23;;;;;;;0.93;0.30;;;7.70;99.90;;;7.16;100.00;96497.16;4987301;28;20065;-37
2023/04/02 01:50:53;;;;;;;0.77;0.30;;;7.80;99.90;;;7.15;100.00;96500.66;4988025;28;20036;-37
2023/04/02 01:53:22;;;;;;;0.77;0.40;;;7.80;99.90;;;7.17;100.00;96496.22;4994696;28;20025;-37
2023/04/02 01:55:52;;;;;;;1.00;0.35;;;7.80;99.90;;;7.14;100.00;96504.22;4984549;28;20553;-37
2023/04/02 01:58:24;;;;;;;0.85;0.30;;;7.80;99.90;;;7.14;100.00;96504.22;5008871;28;20041;-37
2023/04/02 02:00:55;;;;;;;0.45;0.30;;;7.80;99.90;;;7.12;100.00;96508.63;4989182;28;20116;-37
2023/04/02 02:03:21;;;;;;;0.23;0.20;;;7.80;99.90;;;7.16;100.00;96515.50;5012437;28;20029;-37
2023/04/02 02:05:47;;;;;;;0.60;0.40;;;7.80;99.90;;;7.13;100.00;96514.75;5009144;28;20040;-37
2023/04/02 02:08:38;;;;;;;1.00;0.50;;;7.80;99.90;;;7.13;100.00;96512.16;5006178;28;20478;-37
2023/04/02 02:11:07;;;;;;;0.40;0.30;;;7.80;99.90;;;7.11;100.00;96508.72;5009534;28;20654;-37
2023/04/02 02:13:35;;;;;;;0.52;0.30;;;7.80;99.90;;;7.11;100.00;96516.59;5008740;28;22351;-37
2023/04/02 02:16:03;;;;;;;0.80;0.40;;;7.80;99.90;;;7.11;100.00;96521.84;5009385;28;20033;-37
2023/04/02 02:18:30;;;;;;;0.55;0.30;;;7.80;99.90;;;7.11;100.00;96513.97;5006405;28;20124;-37
2023/04/02 02:21:04;;;;;;;0.30;0.30;;;7.80;99.90;;;7.11;100.00;96516.59;5011197;28;20033;-37
2023/04/02 02:23:31;;;;;;;0.25;0.25;;;7.70;99.90;;;7.12;100.00;96523.53;4985639;28;20315;-37
2023/04/02 02:25:57;;;;;;;0.30;0.30;;;7.80;99.90;;;7.13;100.00;96530.50;5015393;23;20417;-39
2023/04/02 02:28:30;;;;;;;0.65;0.30;;;7.80;99.90;;;7.13;100.00;96533.13;5001824;28;20034;-39
2023/04/02 02:31:11;;;;;;;0.35;0.30;;;7.80;99.90;;;7.15;100.00;96536.53;4995158;28;20033;-39
2023/04/02 02:33:45;;;;;;;0.50;0.35;;;7.80;99.90;;;7.11;100.00;96535.78;4977975;28;20437;-39
2023/04/02 02:36:52;;;;;;;1.92;0.50;;;7.80;99.90;;;7.11;100.00;96534.94;4979210;28;20026;-39
2023/04/02 02:39:26;;;;;;;0.35;0.25;;;7.70;99.90;;;7.06;100.00;96527.25;4976569;28;20049;-39
2023/04/02 02:42:03;;;;;;;2.80;0.50;;;7.70;99.90;;;7.11;100.00;96543.66;4983443;28;20026;-39
2023/04/02 02:44:35;;;;;;;2.60;0.40;;;7.80;99.90;;;7.12;100.00;96547.97;4980183;28;20091;-39
2023/04/02 02:47:09;;;;;;;0.88;0.30;;;7.70;99.90;;;7.13;100.00;96548.84;4982301;28;20025;-39
2023/04/02 02:49:41;;;;;;;1.27;0.45;;;7.80;99.90;;;7.15;100.00;96549.66;4968894;28;20671;-39
2023/04/02 02:52:23;;;;;;;0.28;0.28;;;7.80;99.90;;;7.05;100.00;96541.25;4970447;28;20042;-39
2023/04/02 02:54:52;;;;;;;;;;;7.80;99.90;;;6.99;100.00;96523.97;4980596;28;20069;-39
2023/04/02 02:57:25;;;;;;;0.40;0.40;;;7.80;99.90;;;7.17;100.00;96555.69;4982526;28;19925;-39
2023/04/02 02:59:53;;;;;;;0.90;0.40;;;7.80;99.90;;;7.19;100.00;96548.59;4971735;28;20038;-39
2023/04/02 03:02:19;;;;;;;1.10;0.52;;;7.80;99.90;;;7.17;100.00;96551.28;4985712;28;20053;-39
2023/04/02 03:04:51;;;;;;;0.45;0.30;;;7.80;99.90;;;7.19;100.00;96559.09;4989929;28;20109;-39
2023/04/02 03:07:20;;;;;;;1.23;0.40;;;7.80;99.90;;;7.23;100.00;96558.06;4983514;28;20486;-39
2023/04/02 03:10:09;;;;;;;0.88;0.40;;;7.80;99.90;;;7.18;100.00;96558.25;4990086;28;20073;-39
2023/04/02 03:13:11;;;;;;;0.50;0.35;;;7.80;99.90;;;7.15;100.00;96557.50;4987462;28;20034;-39
2023/04/02 03:16:03;;;;;;;0.40;0.40;;;7.80;99.90;;;7.18;100.00;96573.97;4985614;28;20030;-39
2023/04/02 03:19:05;;;;;;;0.68;0.40;;;7.80;99.90;;;7.18;100.00;96573.13;4991419;28;20038;-39
2023/04/02 03:21:38;;;;;;;0.55;0.43;;;7.80;99.90;;;7.17;100.00;96572.25;4968203;28;20040;-39
2023/04/02 03:24:19;;;;;;;0.50;0.30;;;7.80;99.90;;;7.23;100.00;96573.78;4993836;28;20038;-39
2023/04/02 03:27:02;;;;;;;0.57;0.32;;;7.80;99.90;;;7.20;100.00;96581.81;4987158;28;20030;-39
2023/04/02 03:29:37;;;;;;;2.15;0.40;;;7.90;99.90;;;7.20;100.00;96576.56;4975306;28;20026;-39
2023/04/02 03:32:16;;;;;;;0.65;0.30;;;7.80;99.90;;;7.19;100.00;96574.81;4970208;28;20033;-39
2023/04/02 03:34:57;;;;;;;0.70;0.30;;;7.80;99.90;;;7.19;100.00;96587.94;4984034;28;20048;-39
2023/04/02 03:37:41;;;;;;;0.38;0.30;;;7.80;99.90;;;7.17;100.00;96592.38;4978859;28;20104;-39
2023/04/02 03:40:21;;;;;;;1.63;0.60;;;7.80;99.90;;;7.17;100.00;96597.63;4976982;28;21773;-39
2023/04/02 03:43:02;;;;;;;0.40;0.40;;;7.80;99.90;;;7.18;100.00;96594.13;4970475;28;20184;-39
2023/04/02 03:45:34;;;;;;;0.73;0.40;;;7.80;99.90;;;7.15;100.00;96594.22;4959465;28;20034;-39
2023/04/02 03:48:05;;;;;;;;;;;7.80;99.90;;;7.16;100.00;96593.28;4974616;28;20117;-39
2023/04/02 03:50:50;;;;;;;0.35;0.20;;;7.80;99.90;;;7.15;100.00;96592.44;4983530;28;19917;-39
2023/04/02 03:53:16;;;;;;;0.70;0.32;;;7.80;99.90;;;7.15;100.00;96602.09;4963622;28;20040;-39
2023/04/02 03:55:42;;;;;;;0.38;0.30;;;7.80;99.90;;;7.13;100.00;96602.13;4985499;28;20120;-39
2023/04/02 03:58:16;;;;;;;0.32;0.30;;;7.80;99.90;;;7.15;100.00;96608.19;4987509;28;20056;-39
2023/04/02 04:01:00;;;;;;;0.35;0.35;;;7.80;99.90;;;7.13;100.00;96606.53;4975527;28;20036;-39
2023/04/02 04:03:36;;;;;;;1.50;0.30;;;7.70;99.90;;;7.12;100.00;96604.81;4978937;28;20120;-39
2023/04/02 04:06:23;;;;;;;0.40;0.32;;;7.70;99.90;;;7.09;100.00;96616.28;4975180;28;20042;-39
2023/04/02 04:08:54;;;;;;;1.42;0.43;;;7.70;99.90;;;7.05;100.00;96610.28;4973605;28;20120;-39
2023/04/02 04:11:50;;;;;;;0.82;0.40;;;7.70;99.90;;;7.06;100.00;96617.22;4983307;28;20557;-39
2023/04/02 04:14:30;;;;;;;0.52;0.40;;;7.70;99.90;;;7.07;100.00;96621.56;4946935;28;20450;-39
2023/04/02 04:17:08;;;;;;;0.55;0.35;;;7.70;99.90;;;7.05;100.00;96623.41;4956127;28;20034;-39
2023/04/02 04:19:45;;;;;;;0.30;0.30;;;7.70;99.90;;;7.05;100.00;96622.50;4974249;28;20077;-39
2023/04/02 04:22:28;;;;;;;0.17;0.10;;;7.70;99.90;;;7.04;100.00;96629.53;4993040;28;20057;-39
2023/04/02 04:24:56;;;;;;;0.30;0.22;;;7.70;99.90;;;7.02;100.00;96628.72;4982416;28;20045;-39
2023/04/02 04:27:33;;;;;;;0.22;0.22;;;7.70;99.90;;;7.02;100.00;96628.72;4980484;28;20044;-39
2023/04/02 04:30:26;;;;;;;0.68;0.50;;;7.60;99.90;;;7.01;100.00;96639.28;4980605;28;20571;-38
2023/04/02 04:33:21;;;;;;;0.30;0.30;;;7.60;99.90;;;7.01;100.00;96636.66;4981571;28;20038;-39
2023/04/02 04:35:53;;;;;;;0.30;0.30;;;7.60;99.90;;;6.99;100.00;96641.94;4986488;28;20033;-39
2023/04/02 04:38:38;;;;;;;0.85;0.28;;;7.60;99.90;;;7.00;100.00;96648.91;4993264;28;20049;-39
2023/04/02 04:41:23;;;;;;;1.00;0.43;;;7.60;99.90;;;6.95;100.00;96647.38;4987985;28;20045;-39
2023/04/02 04:44:14;;;;;;;1.42;0.40;;;7.60;99.90;;;6.98;100.00;96652.47;4980903;28;20065;-39
2023/04/02 04:46:44;;;;;;;0.30;0.30;;;7.60;99.90;;;6.98;100.00;96657.72;4983422;28;20037;-39
2023/04/02 04:49:17;;;;;;;1.40;0.50;;;7.60;99.90;;;6.98;100.00;96666.47;4962522;28;20057;-39
2023/04/02 04:51:58;;;;;;;1.33;0.50;;;7.60;99.90;;;6.96;100.00;96660.38;4965470;28;20042;-39
2023/04/02 04:54:27;;;;;;;0.63;0.47;;;7.60;99.90;;;6.97;100.00;96662.13;4965944;28;20036;-39
2023/04/02 04:57:02;;;;;;;0.75;0.60;;;7.60;99.90;;;6.97;100.00;96669.13;4982927;28;20080;-39
2023/04/02 04:59:39;;;;;;;1.52;0.50;;;7.60;99.90;;;6.99;100.00;96664.69;4968802;28;20956;-39
2023/04/02 05:02:17;;;;;;;1.05;0.50;;;7.60;99.90;;;7.03;100.00;96671.53;4981918;28;20038;-39
2023/04/02 05:04:48;;;;;;;0.85;0.40;;;7.60;99.90;;;7.03;100.00;96674.16;4983726;28;20038;-39
2023/04/02 05:07:22;;;;;;;0.63;0.30;;;7.60;99.90;;;7.02;100.00;96677.69;4985424;28;20044;-39
2023/04/02 05:10:07;;;;;;;3.03;0.30;;;7.70;99.90;;;7.08;100.00;96680.09;4969923;28;20762;-39
2023/04/02 05:12:51;;;;;;;0.52;0.40;;;7.70;99.90;;;7.10;100.00;96680.06;4963107;28;20120;-39
2023/04/02 05:15:23;;;;;;;2.22;0.40;;;7.70;99.90;;;7.12;100.00;96679.06;4967361;28;20608;-39
2023/04/02 05:18:27;;;;;;;0.85;0.47;;;7.70;99.90;;;7.10;100.00;96680.91;4989992;28;20116;-39
2023/04/02 05:21:07;;;;;;;0.30;0.30;;;7.70;99.90;;;7.09;100.00;96684.44;4974462;28;20034;-39
2023/04/02 05:23:50;;;;;;;0.50;0.40;;;7.70;99.90;;;7.12;100.00;96686.94;4991902;28;20035;-39
2023/04/02 05:26:31;;;;;;;0.90;0.40;;;7.70;99.90;;;7.08;100.00;96685.34;4987372;28;20027;-39
2023/04/02 05:29:19;;;;;;;0.57;0.38;;;7.70;99.90;;;7.08;100.00;96687.97;4983294;28;20636;-39
2023/04/02 05:32:02;;;;;;;0.65;0.30;;;7.70;99.90;;;7.08;100.00;96695.81;4970788;28;20033;-39
2023/04/02 05:34:38;;;;;;;0.55;0.38;;;7.70;99.90;;;7.12;100.00;96700.03;4982747;28;20381;-39
2023/04/02 05:37:07;;;;;;;0.47;0.20;;;7.70;99.90;;;7.14;100.00;96700.00;4986157;28;20029;-39
2023/04/02 05:39:33;;;;;;;0.40;0.40;;;7.70;99.90;;;7.15;100.00;96704.34;4986312;28;20088;-39
2023/04/02 05:42:03;;;;;;;0.55;0.47;;;7.80;99.90;;;7.20;100.00;96702.44;4969057;28;20107;-39
2023/04/02 05:44:33;;;;;;;3.10;0.40;;;7.80;99.90;;;7.22;100.00;96698.81;4987961;28;20030;-39
2023/04/02 05:47:13;;;;;;;0.98;0.32;;;7.80;99.90;;;7.13;100.00;96688.66;4975407;28;20053;-39
2023/04/02 05:49:49;;;;;;;0.30;0.30;;;7.90;99.90;;;7.29;100.00;96717.84;4978895;28;20124;-39
2023/04/02 05:52:22;;;;;;;0.43;0.30;;;7.90;99.90;;;7.34;100.00;96721.16;4999529;28;20084;-39
2023/04/02 05:54:58;;;;;;;0.43;0.30;;;7.90;99.90;;;7.36;100.00;96723.75;4972662;28;20037;-39
2023/04/02 05:57:32;;;;;;;0.70;0.40;;;7.90;99.90;;;7.39;100.00;96727.09;4977458;28;20505;-39
2023/04/02 06:00:04;;;;;;;0.38;0.38;;;8.00;99.90;;;7.44;100.00;96722.53;4974922;28;20124;-39
2023/04/02 06:02:44;;;;;;;0.52;0.30;;;8.00;99.90;;;7.50;100.00;96733.72;4978250;28;20030;-39
2023/04/02 06:05:19;;;;;;;1.75;0.40;;;8.10;99.90;;;7.54;100.00;96735.34;4995485;28;20041;-39
2023/04/02 06:07:58;;;;;;;0.50;0.30;;;8.10;99.90;;;7.59;100.00;96731.66;4993749;28;20149;-39
2023/04/02 06:10:32;;;;;;;0.60;0.40;;;8.20;99.90;;;7.65;100.00;96734.03;4969610;28;20113;-39
2023/04/02 06:13:06;;;;;;;0.77;0.30;;;8.30;99.90;;;7.70;100.00;96741.75;4988500;28;20026;-39
2023/04/02 06:15:35;;;;;;;0.63;0.40;;;8.20;99.90;;;7.71;100.00;96735.59;4989622;28;20044;-39
2023/04/02 06:18:16;;;;;;;0.38;0.38;;;8.30;99.90;;;7.81;100.00;96752.72;4990920;28;20548;-39
2023/04/02 06:20:42;;;;;;;0.47;0.30;;;8.40;99.90;;;7.80;100.00;96739.66;4989816;28;20041;-39
2023/04/02 06:23:29;;;;;;;0.65;0.40;;;8.40;99.90;;;7.89;100.00;96751.59;4996150;28;20041;-39
2023/04/02 06:26:09;;;;;;;1.02;0.55;;;8.50;99.90;;;7.99;100.00;96763.47;4976462;28;20045;-39
2023/04/02 06:28:47;;;;;;;1.05;0.50;;;8.50;99.90;;;8.04;100.00;96766.78;4973302;28;20044;-39
2023/04/02 06:31:26;;;;;;;0.38;0.38;;;8.60;99.90;;;8.06;100.00;96770.22;4989632;28;20405;-39
2023/04/02 06:33:53;;;;;;;0.30;0.22;;;8.60;99.90;;;8.13;100.00;96770.81;4958693;28;20030;-39
2023/04/02 06:36:20;;;;;;;0.75;0.47;;;8.70;99.90;;;8.18;100.00;96772.38;4979453;28;20033;-39
2023/04/02 06:38:47;;;;;;;1.15;0.43;;;8.80;99.90;;;8.27;100.00;96778.19;4999095;28;20042;-39
2023/04/02 06:41:22;;;;;;;1.48;0.93;;;8.80;99.90;;;8.34;100.00;96780.50;4978639;28;20076;-39
2023/04/02 06:43:57;;;;;;;0.45;0.30;;;8.90;99.90;;;8.39;100.00;96790.88;4978823;28;20438;-39
2023/04/02 06:46:46;;;;;;;0.60;0.45;;;8.90;99.90;;;8.45;100.00;96785.41;4997344;28;20509;-39
2023/04/02 06:49:28;;;;;;;1.92;0.40;;;9.00;99.90;;;8.52;100.00;96796.53;5000398;28;20072;-39
2023/04/02 06:51:55;;;;;;;0.52;0.30;;;9.10;99.90;;;8.55;100.00;96794.66;4993309;28;20532;-39
2023/04/02 06:54:21;;;;;;;0.32;0.30;;;9.10;99.90;;;8.61;100.00;96801.44;4982771;28;20121;-39
2023/04/02 06:56:51;;;;;;;1.23;0.50;;;9.20;99.90;;;8.66;100.00;96802.13;4998625;28;20561;-39
2023/04/02 06:59:17;;;;;;;0.30;0.30;;;9.20;99.90;;;8.73;100.00;96808.00;5002090;28;20042;-39
2023/04/02 07:02:05;;;;;;;0.90;0.40;;;9.20;99.90;;;8.83;100.00;96819.88;4990475;28;20698;-39
2023/04/02 07:04:31;;;;;;;1.17;0.47;;;9.30;99.90;;;8.92;100.00;96823.94;4979201;28;20509;-39
2023/04/02 07:06:57;;;;;;;1.85;0.40;;;9.50;99.90;;;9.04;100.00;96828.66;4975768;28;20521;-39
2023/04/02 07:09:23;;;;;;;0.95;0.35;;;9.60;99.90;;;9.07;100.00;96831.19;5001621;28;20038;-39
2023/04/02 07:11:49;;;;;;;0.45;0.40;;;9.60;99.90;;;9.13;100.00;96835.34;4994697;28;20034;-39
2023/04/02 07:14:15;;;;;;;2.50;0.40;;;9.70;99.90;;;9.16;100.00;96829.97;4999615;28;20022;-39
2023/04/02 07:16:42;;;;;;;0.88;0.55;;;9.70;99.90;;;9.21;100.00;96849.06;4988261;28;20114;-39
2023/04/02 07:19:18;;;;;;;0.38;0.30;;;9.70;99.90;;;9.22;100.00;96845.50;4984032;28;20033;-39
2023/04/02 07:21:43;;;;;;;0.77;0.20;;;9.70;99.90;;;9.28;100.00;96849.69;4991646;28;20783;-39
2023/04/02 07:24:09;;;;;;;0.70;0.40;;;9.80;99.90;;;9.28;100.00;96852.31;4997506;28;20037;-39
2023/04/02 07:26:35;;;;;;;1.77;0.30;;;9.80;99.90;;;9.30;100.00;96853.09;4985903;28;20042;-39
2023/04/02 07:29:00;;;;;;;0.50;0.20;;;9.80;99.90;;;9.27;100.00;96863.72;4988423;28;20494;-39
2023/04/02 07:31:28;;;;;;;1.88;0.32;;;9.80;99.90;;;9.30;100.00;96858.34;4986128;28;20041;-39
2023/04/02 07:33:58;;;;;;;0.30;0.30;;;9.80;99.90;;;9.36;100.00;96868.63;4989456;28;20137;-39
2023/04/02 07:36:26;;;;;;;0.57;0.30;;;9.80;99.90;;;9.34;100.00;96871.31;4992857;28;20030;-39
2023/04/02 07:38:52;;;;;;;1.85;0.40;;;9.90;99.90;;;9.44;100.00;96878.81;4993712;28;20360;-39
2023/04/02 07:41:18;;;;;;;0.90;0.40;;;9.90;99.90;;;9.45;100.00;96878.78;4999902;28;20037;-39
2023/04/02 07:43:44;;;;;;;1.45;0.30;;;10.00;99.90;;;9.43;100.00;96879.75;4995315;28;20419;-39
2023/04/02 07:46:13;;;;;;;1.23;0.30;;;10.00;99.90;;;9.49;100.00;96876.88;4999219;28;20026;-39
2023/04/02 07:48:39;;;;;;;0.60;0.30;;;10.00;99.90;;;9.36;100.00;96866.00;4997382;28;20445;-39
2023/04/02 07:51:18;;;;;;;0.93;0.40;;;10.00;99.90;;;9.51;100.00;96889.06;4999442;28;20033;-39
2023/04/02 07:53:48;;;;;;;1.02;0.38;;;10.00;99.90;;;9.57;100.00;96890.59;4991010;28;20040;-39
2023/04/02 07:56:16;;;;;;;0.63;0.30;;;10.00;99.90;;;9.59;100.00;96893.16;4993056;28;20129;-39
2023/04/02 07:58:43;;;;;;;0.52;0.40;;;10.10;99.90;;;9.54;100.00;96893.34;4995637;28;20050;-39
2023/04/02 08:01:24;;;;;;;3.33;0.55;;;10.10;99.90;;;9.49;100.00;96897.94;4991662;28;20040;-39
2023/04/02 08:03:55;;;;;;;1.67;0.30;;;10.10;99.90;;;9.57;100.00;96909.00;4990298;28;20052;-39
2023/04/02 08:06:22;;;;;;;0.50;0.38;;;10.00;99.90;;;9.66;100.00;96903.38;4995295;28;20034;-39
2023/04/02 08:08:48;;;;;;;1.65;0.40;;;10.20;99.90;;;9.71;100.00;96900.56;4996924;28;21541;-39
2023/04/02 08:11:15;;;;;;;0.38;0.25;;;10.20;99.90;;;9.87;100.00;96920.06;4992526;28;20092;-39
2023/04/02 08:13:41;;;;;;;1.95;0.50;;;10.30;99.90;;;9.98;100.00;96922.25;4998450;28;20084;-39
2023/04/02 08:16:07;;;;;;;0.40;0.40;;;10.50;99.90;;;10.02;100.00;96918.56;4999382;28;20038;-39
2023/04/02 08:18:34;;;;;;;1.00;0.50;;;10.50;99.90;;;10.04;100.00;96927.25;4990480;28;20294;-39
2023/04/02 08:21:00;;;;;;;1.10;0.50;;;10.60;99.90;;;10.07;100.00;96926.28;4995782;28;20424;-39
2023/04/02 08:23:26;;;;;;;2.22;0.50;;;10.60;99.90;;;10.10;100.00;96940.16;5003208;28;20034;-39
2023/04/02 08:25:53;;;;;;;1.90;0.40;;;10.60;99.90;;;10.11;100.00;96933.97;5013714;22;20064;-36
2023/04/02 08:28:21;;;;;;;0.80;0.40;;;10.60;99.90;;;10.08;100.00;96935.88;5037178;28;20513;-37
2023/04/02 08:30:51;;;;;;;0.73;0.50;;;10.60;99.90;;;10.13;100.00;96941.81;5031250;28;20552;-37
2023/04/02 08:33:17;;;;;;;1.23;0.60;;;10.60;99.90;;;10.18;100.00;96949.53;5029066;28;20044;-37
2023/04/02 08:35:45;;;;;;;0.88;0.60;;;10.70;99.90;;;10.22;100.00;96951.09;5031572;28;20025;-37
2023/04/02 08:38:17;;;;;;;0.93;0.60;;;10.70;99.90;;;10.25;100.00;96954.47;5012898;28;20176;-37
2023/04/02 08:40:47;;;;;;;2.10;0.77;;;10.80;99.90;;;10.26;100.00;96952.69;4995803;28;20077;-37
2023/04/02 08:43:43;;;;;;;0.65;0.50;;;10.80;99.90;;;10.27;100.00;96963.16;4998032;28;20314;-37
2023/04/02 08:46:33;;;;;;;1.77;0.80;;;10.80;99.90;;;10.26;100.00;96958.78;5003895;28;20037;-36
2023/04/02 08:49:11;;;;;;;2.47;0.70;;;10.80;99.90;;;10.29;100.00;96963.94;5013024;28;20124;-37
2023/04/02 08:51:37;;;;;;;1.20;0.57;;;10.80;99.90;;;10.28;100.00;96969.28;5018342;28;20029;-37
2023/04/02 08:54:18;;;;;;;1.08;0.80;;;10.80;99.90;;;10.27;100.00;96976.34;5018612;28;20040;-37
2023/04/02 08:57:23;;;;;;;0.65;0.60;;;10.80;99.90;;;10.24;100.00;96973.81;5014707;28;20568;-37
2023/04/02 09:00:09;;;;;;;1.92;0.75;;;10.80;99.90;;;10.26;100.00;96982.50;5013504;28;20579;-37
2023/04/02 09:02:45;;;;;;;1.10;0.73;;;10.90;99.90;;;10.57;100.00;96986.53;5030391;28;20144;-37
2023/04/02 09:05:27;;;;;;;1.30;0.82;;;11.10;99.90;;;10.92;100.00;96984.09;5015452;28;20029;-37
2023/04/02 09:07:55;;;;;;;1.63;0.80;;;11.40;99.90;;;11.20;100.00;96981.06;5014513;28;20029;-37
2023/04/02 09:10:34;;;;;;;2.05;0.90;;;11.70;99.90;;;11.27;100.00;96984.28;5014304;28;20564;-37
2023/04/02 09:13:02;;;;;;;0.95;0.70;;;12.00;99.90;;;11.39;100.00;96988.13;5018992;28;20631;-37
2023/04/02 09:15:34;;;;;;;1.88;0.73;;;12.00;99.90;;;11.51;100.00;96984.91;5018815;28;20057;-37
2023/04/02 09:18:13;;;;;;;1.02;0.52;;;12.10;99.90;;;11.62;100.00;96993.16;5017706;28;20037;-37
2023/04/02 09:20:48;;;;;;;0.60;0.60;;;12.10;99.90;;;11.32;100.00;96991.97;5074493;27;20133;-36
2023/04/02 09:23:19;;;;;;;2.03;0.65;;;12.10;99.90;;;11.01;100.00;97004.78;5055877;28;20166;-36
2023/04/02 09:25:51;;;;;;;0.68;0.55;;;11.80;99.90;;;10.79;100.00;97001.41;5049485;28;20129;-36
2023/04/02 09:28:19;;;;;;;1.57;0.60;;;11.40;99.90;;;10.73;100.00;97007.81;5056088;28;20174;-36
2023/04/02 09:31:36;;;;;;;2.45;0.55;;;11.20;99.90;;;10.57;100.00;97015.53;5053555;28;20021;-36
2023/04/02 09:34:34;;;;;;;1.30;0.60;;;11.10;99.90;;;10.42;100.00;97021.44;5043597;28;20040;-36
2023/04/02 09:37:12;;;;;;;0.98;0.57;;;10.90;99.90;;;10.30;100.00;97022.78;5055958;28;20031;-36
2023/04/02 09:39:38;;;;;;;2.05;0.70;;;10.80;99.90;;;10.22;100.00;97022.25;5049507;28;20187;-36
2023/04/02 09:42:07;;;;;;;1.77;0.77;;;10.70;99.90;;;10.15;100.00;97029.53;5036507;28;20064;-36
2023/04/02 09:44:33;;;;;;;4.18;0.82;;;10.60;99.90;;;10.07;100.00;97034.28;5056664;28;20128;-36
2023/04/02 09:47:03;;;;;;;0.70;0.60;;;10.60;99.90;;;10.06;100.00;97035.19;5054716;28;20033;-36
2023/04/02 09:49:36;;;;;;;1.58;0.85;;;10.50;99.90;;;10.04;100.00;97035.25;5054739;28;20037;-35
2023/04/02 09:52:27;;;;;;;0.60;0.60;;;10.60;99.90;;;10.00;100.00;97052.13;5049514;28;20063;-36
2023/04/02 09:55:14;;;;;;;2.05;0.80;;;10.50;99.90;;;9.90;100.00;97045.50;5049920;28;20037;-36
2023/04/02 09:57:40;;;;;;;2.33;0.60;;;10.50;99.90;;;9.90;100.00;97053.41;5051970;28;20037;-36
2023/04/02 10:00:27;;;;;;;1.27;0.60;;;10.40;99.90;;;9.91;100.00;97047.22;5052965;28;20036;-35
2023/04/02 10:03:24;;;;;;;0.93;0.80;;;10.50;99.90;;;9.99;100.00;97052.16;5052689;28;20388;-35
2023/04/02 10:06:13;;;;;;;0.85;0.60;;;10.60;99.90;;;10.02;100.00;97055.53;5049079;28;20033;-37
2023/04/02 10:08:42;;;;;;;2.00;0.60;;;10.60;99.90;;;10.16;100.00;97054.09;5054265;28;20036;-36
2023/04/02 10:11:27;;;;;;;1.70;0.50;;;10.70;99.90;;;10.24;100.00;97062.56;5051004;28;20094;-36
2023/04/02 10:14:15;;;;;;;0.90;0.68;;;10.80;99.90;;;10.37;100.00;97066.44;5064763;28;20039;-36
2023/04/02 10:16:48;;;;;;;0.85;0.60;;;10.90;99.90;;;10.44;100.00;97064.41;5047686;28;20120;-36
2023/04/02 10:19:46;;;;;;;2.30;0.80;;;11.00;99.90;;;10.49;100.00;97075.63;5052610;28;20053;-36
2023/04/02 10:22:17;;;;;;;1.27;0.60;;;11.00;99.90;;;10.61;100.00;97074.28;5048374;28;20036;-36
2023/04/02 10:24:43;;;;;;;0.68;0.35;;;11.10;99.90;;;10.75;100.00;97078.94;5034485;28;20052;-36
2023/04/02 10:27:36;;;;;;;0.88;0.40;;;11.20;99.90;;;10.63;100.00;97080.34;5034384;28;20132;-36
2023/04/02 10:30:38;;;;;;;0.40;0.40;;;11.20;99.90;;;10.66;100.00;97078.44;5041064;28;20033;-36
2023/04/02 10:33:24;;;;;;;0.82;0.43;;;11.20;99.90;;;10.82;100.00;97077.75;5047340;28;20072;-36
2023/04/02 10:36:26;;;;;;;0.50;0.50;;;11.30;99.90;;;10.95;100.00;97084.22;5030198;28;20045;-36
2023/04/02 10:39:16;;;;;;;2.25;0.60;;;11.40;99.90;;;11.09;100.00;97086.28;5032624;28;20028;-36
2023/04/02 10:42:12;;;;;;;0.75;0.52;;;11.50;99.90;;;11.10;100.00;97085.34;5033645;28;20543;-36
2023/04/02 10:45:18;;;;;;;3.60;0.60;;;11.60;99.90;;;11.07;100.00;97096.00;5034596;28;20099;-35
2023/04/02 10:48:01;;;;;;;2.30;0.60;;;11.70;99.90;;;11.21;100.00;97095.41;5029491;28;20481;-36
2023/04/02 10:50:55;;;;;;;0.35;0.30;;;11.70;99.90;;;11.39;100.00;97096.38;5034951;28;20029;-36
2023/04/02 10:53:36;;;;;;;0.57;0.30;;;11.90;99.90;;;11.54;100.00;97102.72;5036199;28;20071;-36
2023/04/02 10:56:07;;;;;;;0.30;0.22;;;12.00;99.90;;;11.60;100.00;97097.19;5032485;28;20025;-36
2023/04/02 10:58:43;;;;;;;0.52;0.38;;;12.20;99.90;;;11.84;100.00;97096.06;5033083;28;20028;-36
2023/04/02 11:01:15;;;;;;;1.20;0.40;;;12.30;99.90;;;12.11;100.00;97094.84;5030971;28;20130;-36
2023/04/02 11:03:53;;;;;;;0.43;0.43;;;12.60;99.90;;;12.21;99.10;97098.75;5026684;28;20044;-36
2023/04/02 11:06:25;;;;;;;1.17;0.40;;;12.80;99.90;;;12.52;94.45;97110.47;5041757;28;20271;-36
2023/04/02 11:08:57;;;;;;;0.52;0.20;;;13.00;99.90;;;12.69;92.61;97118.44;5045698;28;20389;-36